Time;durP1;ratioP1;P1;durP2;ratioP2;P2;SDS_P1;SDS_P2;PMS_P1;PMS_P2;Temp;Humidity;BMP_temperature;BMP_pressure;BME280_temperature;BME280_humidity;BME280_pressure;Samples;Min_cycle;Max_cycle;Signal;HPM_P1;HPM_P2
2023/01/18 00:01:09;;;;;;;7.60;0.93;;;;;;;-2.14;51.47;98904.63;4988104;28;20071;-65
2023/01/18 00:03:37;;;;;;;3.25;1.02;;;;;;;-2.13;51.72;98896.94;5000481;28;20136;-66
2023/01/18 00:06:07;;;;;;;1.23;0.40;;;;;;;-2.22;51.60;98908.19;5002812;28;20470;-66
2023/01/18 00:08:34;;;;;;;1.67;0.70;;;;;;;-2.28;51.67;98908.28;4984431;28;20589;-68
2023/01/18 00:11:04;;;;;;;2.10;0.60;;;;;;;-2.28;51.43;98912.59;5002804;28;20060;-69
2023/01/18 00:13:32;;;;;;;0.95;0.52;;;;;;;-2.37;51.53;98911.03;4986272;28;20120;-71
2023/01/18 00:16:06;;;;;;;5.65;0.40;;;;;;;-2.40;52.08;98912.78;5004385;28;20095;-72
2023/01/18 00:18:31;;;;;;;1.35;0.70;;;;;;;-2.52;52.48;98916.41;4989361;28;20044;-71
2023/01/18 00:21:01;;;;;;;9.73;1.10;;;;;;;-2.41;52.19;98906.84;5003541;28;20441;-72
2023/01/18 00:23:27;;;;;;;2.60;0.88;;;;;;;-2.44;52.13;98906.91;4979479;28;20786;-74
2023/01/18 00:25:52;;;;;;;6.03;1.17;;;;;;;-2.56;52.59;98914.78;4993626;28;20073;-72
2023/01/18 00:28:21;;;;;;;1.45;0.40;;;;;;;-2.40;51.90;98915.34;5000688;28;20058;-66
2023/01/18 00:30:47;;;;;;;3.25;1.08;;;;;;;-2.45;51.94;98918.00;5000743;28;20128;-66
2023/01/18 00:33:12;;;;;;;2.83;0.80;;;;;;;-2.45;51.77;98918.88;5000137;28;20812;-66
2023/01/18 00:35:38;;;;;;;2.90;1.33;;;;;;;-2.54;51.99;98920.72;4986205;28;20033;-65
2023/01/18 00:38:03;;;;;;;1.92;0.82;;;;;;;-2.60;52.54;98921.69;4972928;28;20048;-66
2023/01/18 00:40:29;;;;;;;4.07;1.40;;;;;;;-2.59;52.78;98917.41;4997460;28;20490;-65
2023/01/18 00:45:39;;;;;;;3.28;0.90;;;;;;;-2.84;53.39;98923.78;4998952;28;20624;-64
2023/01/18 00:48:12;;;;;;;4.85;0.80;;;;;;;-2.58;53.14;98916.53;4998243;28;20077;-65
2023/01/18 00:50:38;;;;;;;7.57;1.15;;;;;;;-2.61;53.16;98919.16;4998443;28;20129;-64
2023/01/18 00:53:03;;;;;;;4.82;1.40;;;;;;;-2.60;53.15;98921.69;5000378;28;20080;-64
2023/01/18 00:55:28;;;;;;;2.30;0.80;;;;;;;-2.57;52.80;98915.66;4982599;28;20040;-65
2023/01/18 00:57:56;;;;;;;5.35;1.23;;;;;;;-2.52;52.29;98919.81;4999557;28;20182;-65
2023/01/18 01:00:22;;;;;;;6.38;1.27;;;;;;;-2.48;52.07;98925.72;4999655;28;20033;-65
2023/01/18 01:02:50;;;;;;;5.20;1.35;;;;;;;-2.63;52.48;98924.28;4985480;28;20041;-66
2023/01/18 01:08:15;;;;;;;3.70;1.02;;;;;;;-2.71;52.55;98924.41;4996763;28;20419;-66
2023/01/18 01:10:42;;;;;;;2.35;1.00;;;;;;;-2.59;52.04;98930.19;5001974;28;20060;-65
2023/01/18 01:26:53;;;;;;;2.75;1.40;;;;;;;-3.29;53.80;98935.56;4994832;28;20102;-66
2023/01/18 01:29:18;;;;;;;3.15;1.80;;;;;;;-3.38;54.49;98936.53;4953006;28;20804;-65
2023/01/18 01:31:44;;;;;;;7.10;1.77;;;;;;;-3.60;55.54;98941.06;5000265;28;20216;-65
2023/01/18 01:34:09;;;;;;;3.35;1.65;;;;;;;-3.28;54.56;98938.06;4999777;28;20052;-66
2023/01/18 01:36:37;;;;;;;3.80;1.77;;;;;;;-2.94;53.25;98942.66;4998344;28;20034;-66
2023/01/18 01:39:07;;;;;;;3.45;1.80;;;;;;;-3.09;53.52;98948.88;4996759;28;20068;-66
2023/01/18 01:41:35;;;;;;;2.17;1.10;;;;;;;-2.94;52.76;98946.94;5000261;28;20107;-66
2023/01/18 01:44:33;;;;;;;2.60;1.40;;;;;;;-3.08;53.39;98950.56;4999322;28;20506;-65
2023/01/18 01:46:58;;;;;;;3.45;2.03;;;;;;;-2.94;52.83;98959.72;4981419;28;20041;-66
2023/01/18 01:49:28;;;;;;;3.03;1.30;;;;;;;-3.06;53.12;98964.16;5003727;28;20304;-65
2023/01/18 01:51:57;;;;;;;4.80;1.73;;;;;;;-3.05;53.05;98963.31;4991627;28;20029;-63
2023/01/18 01:54:43;;;;;;;4.30;1.23;;;;;;;-3.09;52.86;98961.66;5003472;28;20487;-63
2023/01/18 01:57:16;;;;;;;3.88;1.20;;;;;;;-3.03;52.66;98968.38;5006146;28;20030;-63
2023/01/18 01:59:50;;;;;;;3.00;1.33;;;;;;;-3.10;53.19;98967.63;4999702;28;20943;-66
2023/01/18 02:02:15;;;;;;;5.43;1.83;;;;;;;-3.07;53.16;98974.41;5007086;28;20563;-62
2023/01/18 02:04:43;;;;;;;2.97;1.52;;;;;;;-3.00;52.55;98973.47;5003834;28;20251;-63
2023/01/18 02:07:09;;;;;;;4.43;1.80;;;;;;;-3.02;52.44;98974.34;5010302;28;20041;-63
2023/01/18 02:09:35;;;;;;;2.25;1.23;;;;;;;-3.16;53.36;98980.50;5005840;28;20505;-64
2023/01/18 02:12:01;;;;;;;2.35;1.40;;;;;;;-3.08;53.11;98980.38;5003507;28;20037;-64
2023/01/18 02:14:28;;;;;;;3.08;1.70;;;;;;;-3.01;52.61;98970.91;5003916;28;20491;-63
2023/01/18 02:17:09;;;;;;;3.28;1.80;;;;;;;-3.12;52.97;98984.69;5003395;28;20824;-65
2023/01/18 02:19:58;;;;;;;8.82;2.38;;;;;;;-3.09;52.64;98992.31;5005616;28;20041;-65
2023/01/18 02:23:01;;;;;;;2.75;1.40;;;;;;;-3.32;53.47;98991.78;5004033;28;20434;-64
2023/01/18 02:25:58;;;;;;;5.80;1.83;;;;;;;-3.08;53.00;98988.88;5007017;28;20041;-64
2023/01/18 02:28:34;;;;;;;3.42;1.85;;;;;;;-2.98;52.73;98991.31;5011919;28;20045;-64
2023/01/18 02:31:25;;;;;;;3.85;1.63;;;;;;;-2.98;52.76;98997.28;5015293;28;20030;-64
2023/01/18 02:34:03;;;;;;;3.05;1.67;;;;;;;-2.92;52.74;98992.06;5005115;28;20045;-67
2023/01/18 02:36:41;;;;;;;3.72;1.95;;;;;;;-2.94;52.78;98992.97;4984118;28;20117;-67
2023/01/18 02:39:22;;;;;;;5.82;2.35;;;;;;;-3.07;53.16;98993.16;4979525;28;20060;-67
2023/01/18 02:47:27;;;;;;;2.13;1.80;;;;;;;-3.07;52.62;98992.31;5003471;28;20049;-63
2023/01/18 02:49:57;;;;;;;4.10;2.60;;;;;;;-3.14;52.35;98991.56;5006913;28;20073;-63
2023/01/18 02:52:50;;;;;;;9.18;2.28;;;;;;;-3.16;52.85;98992.41;4992586;28;20538;-63
2023/01/18 02:55:42;;;;;;;3.53;1.80;;;;;;;-3.13;52.34;98992.38;5004433;28;20021;-65
2023/01/18 02:58:29;;;;;;;;;;;;;;;-3.12;52.37;98994.91;4985931;28;20053;-67
2023/01/18 03:01:02;;;;;;;3.70;1.83;;;;;;;-3.20;52.38;98988.25;5002959;28;19916;-66
2023/01/18 03:03:27;;;;;;;4.28;2.10;;;;;;;-3.27;52.50;98995.97;5000305;28;20415;-67
2023/01/18 03:05:58;;;;;;;5.30;2.63;;;;;;;-3.32;52.50;98992.66;5002621;28;20119;-62
2023/01/18 03:08:27;;;;;;;3.33;1.63;;;;;;;-3.29;52.53;98984.09;5001073;28;20053;-65
2023/01/18 03:11:01;;;;;;;4.97;2.67;;;;;;;-3.41;52.70;98982.53;4999836;28;20367;-64
2023/01/18 03:14:00;;;;;;;4.80;1.85;;;;;;;-3.39;52.68;98991.00;4967555;28;20058;-63
2023/01/18 03:16:57;;;;;;;4.18;1.95;;;;;;;-3.46;52.74;98982.59;4996902;28;20056;-63
2023/01/18 03:20:06;;;;;;;3.20;1.92;;;;;;;-3.49;52.73;98990.28;4991141;28;20435;-77
2023/01/18 03:25:31;;;;;;;4.53;2.13;;;;;;;-3.47;52.46;98996.22;5001701;28;20045;-63
2023/01/18 03:33:41;;;;;;;4.93;2.22;;;;;;;-3.40;53.01;98989.34;5001479;28;20096;-65
2023/01/18 03:36:22;;;;;;;5.80;2.28;;;;;;;-3.71;53.85;98993.97;5001004;28;20434;-67
2023/01/18 03:38:54;;;;;;;4.65;1.90;;;;;;;-3.66;53.98;98992.22;5003898;28;20045;-67
2023/01/18 03:41:21;;;;;;;;;;;;;;;-3.52;53.31;98989.47;4987420;28;20640;-67
2023/01/18 03:43:50;;;;;;;4.18;2.55;;;;;;;-3.79;54.14;98995.75;5001590;28;19921;-66
2023/01/18 03:46:18;;;;;;;5.43;3.30;;;;;;;-3.47;53.12;99003.06;5000197;28;20553;-64
2023/01/18 03:48:44;;;;;;;3.88;2.05;;;;;;;-3.49;53.21;98986.91;5000506;28;20046;-66
2023/01/18 03:51:34;;;;;;;4.38;1.92;;;;;;;-3.86;54.13;98991.59;4986391;28;20476;-66
2023/01/18 03:54:07;;;;;;;4.55;2.13;;;;;;;-3.58;53.07;98995.53;4990944;28;20600;-66
2023/01/18 03:57:01;;;;;;;4.60;2.60;;;;;;;-3.50;52.44;98993.69;4998982;28;20175;-66
2023/01/18 03:59:32;;;;;;;3.05;2.05;;;;;;;-3.64;53.27;98994.75;4997821;28;20121;-63
2023/01/18 04:01:58;;;;;;;4.15;2.65;;;;;;;-3.56;52.65;98998.91;4975220;28;20055;-64
2023/01/18 04:04:23;;;;;;;7.50;2.55;;;;;;;-3.77;53.67;98994.88;4999551;28;20033;-64
2023/01/18 04:06:49;;;;;;;3.70;2.60;;;;;;;-3.79;54.24;99000.88;5001510;28;20033;-64
2023/01/18 04:09:14;;;;;;;5.63;2.53;;;;;;;-3.82;54.09;98995.81;5001522;28;20168;-64
2023/01/18 04:11:40;;;;;;;3.85;2.42;;;;;;;-3.60;53.45;99004.91;4979029;28;20468;-64
2023/01/18 04:14:05;;;;;;;11.13;2.83;;;;;;;-3.73;54.09;99000.81;4997302;28;20095;-64
2023/01/18 04:16:38;;;;;;;4.68;2.47;;;;;;;-3.84;54.06;99002.63;4980014;28;20067;-64
2023/01/18 04:19:06;;;;;;;4.53;3.42;;;;;;;-3.91;54.48;99005.25;5001673;28;20054;-64
2023/01/18 04:21:31;;;;;;;4.63;2.80;;;;;;;-3.60;53.48;98999.81;4999758;28;20586;-64
2023/01/18 04:23:57;;;;;;;6.18;2.83;;;;;;;-3.71;53.37;99009.28;4999262;28;20049;-64
2023/01/18 04:26:24;;;;;;;4.20;2.88;;;;;;;-3.63;53.58;99007.50;5001264;28;20035;-65
2023/01/18 04:28:50;;;;;;;5.65;3.08;;;;;;;-3.43;52.65;98998.75;4998686;28;20364;-63
2023/01/18 04:31:15;;;;;;;4.68;2.40;;;;;;;-3.51;52.81;99001.41;4999884;28;20033;-63
2023/01/18 04:33:41;;;;;;;5.35;3.63;;;;;;;-3.61;53.26;99005.75;4997673;28;20077;-64
2023/01/18 04:36:07;;;;;;;6.90;3.65;;;;;;;-4.16;54.96;99019.97;4997649;28;20021;-65
2023/01/18 04:38:32;;;;;;;6.28;3.65;;;;;;;-4.20;55.06;99014.91;4999056;28;20739;-65
2023/01/18 04:41:02;;;;;;;5.70;3.47;;;;;;;-3.73;53.70;99011.03;4984324;28;20092;-64
2023/01/18 04:43:30;;;;;;;6.57;3.03;;;;;;;-3.92;54.14;99018.88;4995854;28;20050;-64
2023/01/18 04:45:56;;;;;;;4.32;3.40;;;;;;;-3.97;54.24;99017.22;5000103;28;20068;-65
2023/01/18 04:48:23;;;;;;;6.07;3.53;;;;;;;-3.82;54.22;99029.00;5000353;28;20049;-64
2023/01/18 04:50:49;;;;;;;5.85;3.22;;;;;;;-4.07;54.45;99024.13;5000559;28;20044;-64
2023/01/18 04:53:16;;;;;;;4.60;3.33;;;;;;;-3.84;53.61;99025.59;4991400;28;20085;-65
2023/01/18 04:55:41;;;;;;;7.30;3.95;;;;;;;-4.01;54.13;99026.63;4999951;28;20034;-65
2023/01/18 04:58:07;;;;;;;8.27;4.47;;;;;;;-4.03;54.91;99028.34;4996340;28;20076;-65
2023/01/18 05:00:32;;;;;;;8.38;4.65;;;;;;;-3.76;53.81;99029.78;4999104;28;20531;-64
2023/01/18 05:03:00;;;;;;;8.80;4.43;;;;;;;-4.15;54.42;99023.34;5001523;28;20045;-65
2023/01/18 05:05:25;;;;;;;7.53;4.55;;;;;;;-4.06;54.39;99030.91;4997282;28;20049;-65
2023/01/18 05:07:51;;;;;;;8.70;5.22;;;;;;;-3.89;54.11;99026.50;5001039;28;20053;-65
2023/01/18 05:10:18;;;;;;;6.80;4.38;;;;;;;-3.98;54.32;99031.69;4986034;28;20805;-66
2023/01/18 05:12:44;;;;;;;6.22;4.45;;;;;;;-3.88;53.71;99032.44;4999307;28;20485;-65
2023/01/18 05:15:12;;;;;;;9.80;5.30;;;;;;;-3.90;53.67;99035.03;4982802;28;20034;-65
2023/01/18 05:17:37;;;;;;;9.48;4.20;;;;;;;-3.85;54.08;99039.22;4999964;28;20183;-66
2023/01/18 05:20:05;;;;;;;12.70;5.10;;;;;;;-4.26;54.36;99038.75;5002148;28;20561;-66
2023/01/18 05:22:35;;;;;;;10.07;5.68;;;;;;;-4.02;54.45;99032.59;4997629;28;20046;-66
2023/01/18 05:25:01;;;;;;;7.65;4.50;;;;;;;-3.90;53.95;99040.13;4988272;28;20106;-67
2023/01/18 05:27:26;;;;;;;6.72;5.13;;;;;;;-4.13;54.85;99042.88;4988444;28;20100;-66
2023/01/18 05:29:51;;;;;;;6.43;4.32;;;;;;;-3.90;54.08;99036.72;4991244;28;20115;-66
2023/01/18 05:32:19;;;;;;;8.85;5.68;;;;;;;-4.44;55.32;99037.19;5000186;28;20133;-66
2023/01/18 05:34:44;;;;;;;5.53;4.10;;;;;;;-4.10;54.31;99047.13;4980596;28;20405;-66
2023/01/18 05:37:10;;;;;;;6.68;4.82;;;;;;;-4.02;54.05;99041.97;4988793;28;20033;-66
2023/01/18 05:39:35;;;;;;;6.93;5.85;;;;;;;-4.26;55.01;99051.50;4999389;28;20267;-67
2023/01/18 05:42:07;;;;;;;14.43;6.00;;;;;;;-4.69;56.01;99056.09;4997813;28;20068;-67
2023/01/18 05:44:34;;;;;;;6.90;4.60;;;;;;;-4.23;54.75;99064.25;4999757;28;20303;-68
2023/01/18 05:47:00;;;;;;;5.63;4.28;;;;;;;-3.94;53.84;99069.09;4994515;28;20049;-67
2023/01/18 05:49:27;;;;;;;8.45;4.68;;;;;;;-4.13;54.18;99065.00;5000316;28;20018;-65
2023/01/18 05:51:53;;;;;;;10.43;5.38;;;;;;;-3.98;54.21;99069.97;4999164;28;20175;-65
2023/01/18 05:54:19;;;;;;;7.78;5.20;;;;;;;-4.51;55.54;99071.25;4999635;28;20558;-65
2023/01/18 05:56:44;;;;;;;6.82;5.00;;;;;;;-4.34;55.29;99074.53;4978730;28;20056;-65
2023/01/18 05:59:14;;;;;;;5.10;4.57;;;;;;;-4.38;55.08;99080.53;4983471;28;20045;-65
2023/01/18 06:01:40;;;;;;;19.52;6.25;;;;;;;-4.71;55.88;99091.78;5001381;28;20779;-65
2023/01/18 06:04:06;;;;;;;6.88;4.88;;;;;;;-4.08;54.22;99096.44;5000842;28;20053;-65
2023/01/18 06:06:37;;;;;;;10.43;4.82;;;;;;;-4.13;53.88;99095.63;4969769;28;20042;-66
2023/01/18 06:09:02;;;;;;;7.32;4.75;;;;;;;-4.05;54.03;99095.56;4985070;28;20054;-65
2023/01/18 06:11:28;;;;;;;8.32;5.20;;;;;;;-4.55;55.11;99102.75;4999867;28;20411;-66
2023/01/18 06:14:01;;;;;;;9.50;6.05;;;;;;;-4.21;54.33;99097.38;4979250;28;20251;-66
2023/01/18 06:16:29;;;;;;;5.95;5.07;;;;;;;-4.17;54.43;99105.00;4982346;28;20041;-65
2023/01/18 06:18:54;;;;;;;8.50;5.28;;;;;;;-4.17;54.37;99109.28;5000548;28;20056;-65
2023/01/18 06:21:20;;;;;;;7.43;4.97;;;;;;;-4.04;53.82;99108.31;5001982;28;20483;-66
2023/01/18 06:23:45;;;;;;;7.93;5.57;;;;;;;-4.22;54.31;99116.97;5000614;28;20108;-65
2023/01/18 06:26:11;;;;;;;8.27;5.82;;;;;;;-4.06;54.01;99110.03;4985744;28;20679;-65
2023/01/18 06:28:36;;;;;;;9.13;5.47;;;;;;;-3.95;53.47;99113.34;4997769;28;20561;-66
2023/01/18 06:31:07;;;;;;;7.50;5.13;;;;;;;-3.95;53.25;99108.22;4987162;28;20355;-65
2023/01/18 06:33:32;;;;;;;11.73;6.25;;;;;;;-3.78;53.08;99122.56;5000410;28;20053;-64
2023/01/18 06:36:00;;;;;;;11.45;5.97;;;;;;;-4.03;53.80;99125.34;5005016;28;20463;-66
2023/01/18 06:38:25;;;;;;;10.18;5.57;;;;;;;-4.15;54.41;99128.81;4986163;28;20041;-66
2023/01/18 06:40:51;;;;;;;7.18;5.43;;;;;;;-3.93;53.56;99131.19;4990830;28;20551;-65
2023/01/18 06:43:16;;;;;;;8.32;5.60;;;;;;;-3.91;53.17;99126.94;5015498;28;20052;-65
2023/01/18 06:45:50;;;;;;;8.20;5.55;;;;;;;-3.85;53.13;99128.56;4986573;28;20041;-65
2023/01/18 06:48:16;;;;;;;13.82;5.60;;;;;;;-4.00;53.46;99127.84;5001453;28;20057;-66
2023/01/18 06:50:41;;;;;;;12.40;5.75;;;;;;;-3.99;53.78;99134.63;5008526;28;20033;-65
2023/01/18 06:53:07;;;;;;;9.07;5.38;;;;;;;-3.98;53.43;99144.00;5004413;28;20095;-66
2023/01/18 06:55:33;;;;;;;8.50;4.88;;;;;;;-4.13;53.91;99152.59;5005231;28;20037;-65
2023/01/18 06:58:01;;;;;;;8.68;4.95;;;;;;;-4.01;53.65;99148.25;5008274;28;20037;-66
2023/01/18 07:00:27;;;;;;;7.43;4.95;;;;;;;-4.03;53.82;99150.84;5006046;28;20136;-65
2023/01/18 07:02:53;;;;;;;7.15;4.45;;;;;;;-3.86;53.14;99154.97;4990555;28;20106;-66
2023/01/18 07:05:21;;;;;;;6.53;5.40;;;;;;;-3.85;52.84;99164.31;5009652;28;20557;-66
2023/01/18 07:07:47;;;;;;;9.57;4.95;;;;;;;-3.81;52.64;99169.38;5004812;28;20135;-66
2023/01/18 07:10:15;;;;;;;7.57;5.20;;;;;;;-4.19;54.01;99170.50;5010825;28;20120;-68
2023/01/18 07:12:42;;;;;;;8.73;4.88;;;;;;;-4.07;53.71;99184.06;5010149;28;20223;-68
2023/01/18 07:15:08;;;;;;;8.30;5.18;;;;;;;-3.99;53.46;99193.34;5000781;28;20491;-68
2023/01/18 07:17:33;;;;;;;9.02;5.30;;;;;;;-4.16;54.11;99196.00;5000706;28;20058;-68
2023/01/18 07:19:59;;;;;;;9.98;5.80;;;;;;;-4.17;54.25;99203.66;5001815;28;20644;-67
2023/01/18 07:22:27;;;;;;;8.82;5.63;;;;;;;-4.16;54.13;99196.00;5000986;28;20046;-68
2023/01/18 07:24:52;;;;;;;16.83;6.55;;;;;;;-3.97;54.06;99201.81;4982849;28;20116;-68
2023/01/18 07:27:17;;;;;;;11.60;6.00;;;;;;;-3.95;53.88;99202.66;4988372;28;20113;-67
2023/01/18 07:29:43;;;;;;;9.98;4.82;;;;;;;-3.95;53.31;99206.94;5002659;28;20091;-67
2023/01/18 07:32:11;;;;;;;10.95;6.03;;;;;;;-4.01;53.80;99205.28;4991393;28;20038;-67
2023/01/18 07:34:39;;;;;;;10.60;5.20;;;;;;;-4.22;54.54;99203.69;5000853;28;20044;-66
2023/01/18 07:37:08;;;;;;;18.02;6.97;;;;;;;-4.15;54.30;99212.16;5003076;28;20240;-66
2023/01/18 07:39:33;;;;;;;10.75;6.43;;;;;;;-4.10;53.99;99216.41;5006079;28;20463;-66
2023/01/18 07:41:59;;;;;;;10.90;5.38;;;;;;;-4.29;54.56;99219.91;4985265;28;20030;-66
2023/01/18 07:44:25;;;;;;;11.15;6.25;;;;;;;-4.34;55.60;99214.84;5003160;28;20128;-69
2023/01/18 07:46:51;;;;;;;13.20;6.63;;;;;;;-3.89;54.20;99215.38;4969867;28;20037;-67
2023/01/18 07:49:19;;;;;;;11.40;6.63;;;;;;;-4.22;54.80;99229.22;5001798;28;20171;-66
2023/01/18 07:51:45;;;;;;;9.68;5.68;;;;;;;-3.81;53.63;99222.13;5010815;28;20161;-66
2023/01/18 07:54:15;;;;;;;17.38;5.82;;;;;;;-3.97;54.24;99235.00;4999873;28;20061;-67
2023/01/18 07:56:43;;;;;;;13.10;5.80;;;;;;;-4.25;54.50;99236.06;5002818;28;20029;-66
2023/01/18 07:59:12;;;;;;;10.10;5.30;;;;;;;-3.82;53.71;99236.63;5003655;28;20044;-66
2023/01/18 08:01:40;;;;;;;13.15;6.72;;;;;;;-3.73;52.94;99236.53;4997128;28;20047;-65
2023/01/18 08:04:09;;;;;;;10.45;6.18;;;;;;;-4.18;54.54;99247.91;4984398;28;20052;-67
2023/01/18 08:06:37;;;;;;;17.17;6.18;;;;;;;-3.76;53.65;99243.41;4985051;28;20041;-66
2023/01/18 08:09:02;;;;;;;15.85;6.28;;;;;;;-3.66;53.74;99250.13;5000495;28;20438;-68
2023/01/18 08:11:28;;;;;;;12.23;6.07;;;;;;;-3.92;53.68;99251.16;5002913;28;20045;-70
2023/01/18 08:13:53;;;;;;;9.38;5.60;;;;;;;-3.82;53.60;99258.75;4992844;28;20104;-67
2023/01/18 08:16:19;;;;;;;13.95;6.35;;;;;;;-3.43;52.53;99249.06;4985791;28;20027;-68
2023/01/18 08:18:53;;;;;;;13.40;5.93;;;;;;;-3.18;52.20;99252.25;5000339;28;20061;-68
2023/01/18 08:21:23;;;;;;;10.52;6.03;;;;;;;-3.31;52.31;99254.09;4985827;28;20924;-68
2023/01/18 08:23:52;;;;;;;10.82;6.10;;;;;;;-2.94;52.27;99263.94;4997743;28;20475;-68
2023/01/18 08:26:17;;;;;;;14.75;6.57;;;;;;;-2.43;51.31;99259.09;4987981;28;20646;-69
2023/01/18 08:28:47;;;;;;;9.98;6.18;;;;;;;-1.97;49.96;99258.50;4987929;28;20038;-67
2023/01/18 08:31:18;;;;;;;15.35;6.18;;;;;;;-1.37;49.13;99249.88;5001803;28;20041;-67
2023/01/18 08:33:46;;;;;;;11.87;5.70;;;;;;;-1.71;47.68;99254.69;5006463;28;20041;-67
2023/01/18 08:36:17;;;;;;;10.90;6.05;;;;;;;-0.44;46.50;99251.59;5001199;28;20042;-67
2023/01/18 08:38:50;;;;;;;11.85;6.07;;;;;;;-0.77;44.91;99259.94;5000260;28;20033;-67
2023/01/18 08:41:17;;;;;;;9.18;4.80;;;;;;;-1.47;47.25;99267.09;4984045;28;20080;-67
2023/01/18 08:43:44;;;;;;;13.35;6.75;;;;;;;-1.70;47.51;99266.66;4984948;28;20475;-67
2023/01/18 08:46:12;;;;;;;12.07;6.57;;;;;;;-2.03;48.58;99277.34;4997857;28;20481;-68
2023/01/18 08:48:37;;;;;;;10.23;5.90;;;;;;;-2.07;49.66;99279.97;4999199;28;20048;-67
2023/01/18 08:51:03;;;;;;;8.65;5.07;;;;;;;-1.94;49.20;99286.59;5000205;28;20077;-67
2023/01/18 08:53:30;;;;;;;10.60;6.03;;;;;;;-2.32;49.88;99295.63;4994688;28;20042;-67
2023/01/18 08:55:55;;;;;;;7.38;5.50;;;;;;;-1.91;49.46;99295.97;5000342;28;20589;-67
2023/01/18 08:58:21;;;;;;;8.55;5.45;;;;;;;-1.81;49.53;99289.84;4998870;28;20407;-67
2023/01/18 09:00:52;;;;;;;11.48;6.15;;;;;;;-2.18;50.32;99292.06;5000583;28;20636;-67
2023/01/18 09:03:21;;;;;;;7.20;5.15;;;;;;;-0.87;47.46;99290.91;4988942;28;20129;-67
2023/01/18 09:05:49;;;;;;;10.48;5.85;;;;;;;-0.65;45.82;99294.78;4987421;28;20440;-68
2023/01/18 09:08:16;;;;;;;11.05;5.80;;;;;;;-0.37;45.48;99295.09;4999995;28;20047;-68
2023/01/18 09:10:42;;;;;;;8.25;5.28;;;;;;;0.13;46.42;99304.31;4994725;28;20465;-68
2023/01/18 09:13:10;;;;;;;12.00;5.05;;;;;;;-0.31;46.50;99304.38;4998817;28;20056;-67
2023/01/18 09:15:36;;;;;;;6.30;4.40;;;;;;;-0.32;45.15;99307.84;4982447;28;20116;-67
2023/01/18 09:18:05;;;;;;;8.93;4.95;;;;;;;-1.22;47.83;99315.41;4998333;28;20052;-67
2023/01/18 09:20:34;;;;;;;9.57;5.57;;;;;;;0.06;45.76;99313.91;4987296;28;20056;-67
2023/01/18 09:23:05;;;;;;;7.43;4.63;;;;;;;0.24;44.57;99308.34;4998459;28;20128;-67
2023/01/18 09:25:31;;;;;;;8.43;4.80;;;;;;;0.90;44.07;99305.91;5000058;28;20867;-67
2023/01/18 09:27:56;;;;;;;9.20;4.90;;;;;;;0.47;44.22;99319.81;4982623;28;20285;-66
2023/01/18 09:30:21;;;;;;;11.93;4.80;;;;;;;-0.63;46.86;99318.69;5013993;28;20087;-67
2023/01/18 09:32:47;;;;;;;7.70;4.25;;;;;;;-0.01;46.01;99317.47;4999128;28;20079;-67
2023/01/18 09:35:16;;;;;;;6.15;3.33;;;;;;;-0.04;44.95;99318.38;5001090;28;20042;-67
2023/01/18 09:37:46;;;;;;;10.43;4.60;;;;;;;0.12;45.77;99326.59;4998199;28;20052;-67
2023/01/18 09:40:20;;;;;;;10.50;4.50;;;;;;;0.73;44.44;99315.81;4997093;28;20403;-67
2023/01/18 09:42:50;;;;;;;10.48;4.78;;;;;;;0.93;43.77;99318.72;4993700;28;20049;-67
2023/01/18 09:45:29;;;;;;;10.23;4.88;;;;;;;0.76;43.90;99323.44;4994760;28;20486;-67
2023/01/18 09:48:03;;;;;;;9.52;5.28;;;;;;;0.53;44.33;99327.41;4988236;28;20041;-67
2023/01/18 09:50:31;;;;;;;7.25;4.55;;;;;;;0.57;43.27;99335.88;4980073;28;20069;-68
2023/01/18 09:53:45;;;;;;;7.68;5.00;;;;;;;1.10;44.01;99332.00;4995698;28;20041;-67
2023/01/18 09:56:19;;;;;;;9.40;4.90;;;;;;;1.51;40.94;99337.81;4943244;28;20045;-67
2023/01/18 09:59:00;;;;;;;8.73;4.43;;;;;;;1.95;42.19;99337.44;4979492;28;20106;-67
2023/01/18 10:01:30;;;;;;;10.38;5.13;;;;;;;2.40;40.97;99333.53;4993800;28;20474;-68
2023/01/18 10:04:01;;;;;;;7.40;4.38;;;;;;;1.91;42.15;99334.13;4996113;28;20132;-67
2023/01/18 10:06:35;;;;;;;6.20;3.80;;;;;;;2.28;40.82;99333.03;4995039;28;20369;-68
2023/01/18 10:09:05;;;;;;;6.93;4.88;;;;;;;2.87;39.93;99326.91;4999142;28;20054;-68
2023/01/18 10:11:47;;;;;;;12.77;4.20;;;;;;;2.27;41.42;99331.34;5003577;28;20124;-67
2023/01/18 10:14:23;;;;;;;6.63;3.53;;;;;;;2.05;41.72;99331.16;4973401;28;20042;-68
2023/01/18 10:16:56;;;;;;;7.25;4.35;;;;;;;2.34;41.35;99325.13;5002542;28;20044;-68
2023/01/18 10:19:28;;;;;;;8.32;4.45;;;;;;;2.72;39.58;99325.66;4994745;28;20064;-68
2023/01/18 10:22:07;;;;;;;14.38;7.22;;;;;;;2.44;39.35;99324.81;5003526;28;20583;-68
2023/01/18 10:24:52;;;;;;;10.07;4.93;;;;;;;2.60;39.38;99330.34;5012263;28;20033;-69
2023/01/18 10:27:47;;;;;;;11.82;7.20;;;;;;;2.89;39.95;99326.81;5005582;28;20041;-68
2023/01/18 10:30:24;;;;;;;9.35;4.18;;;;;;;3.31;38.90;99323.72;4992261;28;20048;-68
2023/01/18 10:32:55;;;;;;;7.07;3.92;;;;;;;2.55;39.86;99328.78;5002861;28;20050;-68
2023/01/18 10:35:38;;;;;;;8.55;4.45;;;;;;;2.40;40.80;99331.84;5003697;28;20041;-66
2023/01/18 10:38:11;;;;;;;7.47;4.65;;;;;;;2.86;39.39;99330.34;4997123;28;20053;-68
2023/01/18 10:40:38;;;;;;;5.18;3.55;;;;;;;3.05;39.32;99330.59;5000929;28;20503;-66
2023/01/18 10:43:09;;;;;;;8.98;4.68;;;;;;;2.60;39.77;99331.22;4999087;28;20753;-67
2023/01/18 10:45:37;;;;;;;8.90;5.37;;;;;;;1.79;42.52;99331.91;4988106;28;20486;-66
2023/01/18 10:48:24;;;;;;;8.07;3.83;;;;;;;1.83;42.72;99327.50;5002384;28;20053;-69
2023/01/18 10:50:56;;;;;;;6.50;3.83;;;;;;;1.96;42.10;99330.59;5001773;28;20469;-66
2023/01/18 10:53:38;;;;;;;9.98;3.53;;;;;;;1.32;43.00;99332.28;5000362;28;20042;-66
2023/01/18 10:56:16;;;;;;;4.38;3.70;;;;;;;2.08;41.26;99325.91;4989709;28;20064;-66
2023/01/18 10:58:51;;;;;;;7.68;4.35;;;;;;;2.32;41.20;99324.31;5002868;28;20772;-66
2023/01/18 11:01:16;;;;;;;5.55;3.40;;;;;;;2.85;40.64;99325.28;5001691;28;20398;-66
2023/01/18 11:03:48;;;;;;;7.70;4.53;;;;;;;2.24;41.09;99312.56;5003541;28;20100;-66
2023/01/18 11:06:19;;;;;;;4.50;3.08;;;;;;;2.32;41.41;99320.91;5003835;28;20038;-66
2023/01/18 11:08:45;;;;;;;9.43;4.43;;;;;;;2.64;40.26;99322.47;5003021;28;20045;-66
2023/01/18 11:11:11;;;;;;;5.63;2.50;;;;;;;2.13;41.35;99315.44;5003343;28;20041;-66
2023/01/18 11:13:42;;;;;;;11.20;3.13;;;;;;;2.42;40.90;99321.44;5000922;28;20046;-65
2023/01/18 11:16:19;;;;;;;6.17;3.67;;;;;;;2.30;41.11;99310.63;5001100;28;20696;-66
2023/01/18 11:18:58;;;;;;;6.25;2.90;;;;;;;2.50;40.93;99315.16;4991286;28;20296;-66
2023/01/18 11:21:30;;;;;;;7.20;3.38;;;;;;;2.31;41.17;99304.59;5006577;28;20495;-65
2023/01/18 11:23:56;;;;;;;5.03;2.65;;;;;;;2.14;42.04;99312.84;4999430;28;20542;-66
2023/01/18 11:26:22;;;;;;;7.38;3.58;;;;;;;2.69;40.72;99310.28;5001666;28;20451;-65
2023/01/18 11:29:05;;;;;;;8.40;2.60;;;;;;;2.74;40.82;99302.38;4989622;28;20068;-66
2023/01/18 11:31:44;;;;;;;9.50;3.65;;;;;;;2.54;41.95;99301.28;4997474;28;20038;-67
2023/01/18 11:34:39;;;;;;;7.07;2.70;;;;;;;2.82;40.93;99299.53;4982114;28;20331;-66
2023/01/18 11:37:28;;;;;;;4.57;2.33;;;;;;;2.88;40.67;99304.50;4987841;28;20029;-66
2023/01/18 11:39:53;;;;;;;5.95;2.85;;;;;;;2.50;41.33;99298.84;4983345;28;20448;-66
2023/01/18 11:42:30;;;;;;;5.55;2.95;;;;;;;2.47;41.49;99312.69;4999144;28;20049;-66
2023/01/18 11:45:21;;;;;;;6.35;2.40;;;;;;;2.92;40.87;99296.63;5000623;28;20490;-66
2023/01/18 11:47:56;;;;;;;5.53;2.55;;;;;;;3.59;39.43;99296.03;4977356;28;20558;-67
2023/01/18 11:50:30;;;;;;;4.05;2.35;;;;;;;3.16;40.52;99294.09;5004795;28;20041;-66
2023/01/18 11:53:20;;;;;;;5.82;1.88;;;;;;;2.87;40.61;99303.69;4984770;28;20045;-66
2023/01/18 11:56:11;;;;;;;4.82;2.20;;;;;;;3.05;40.58;99291.88;5002543;28;20499;-67
2023/01/18 11:58:36;;;;;;;4.10;2.20;;;;;;;2.70;40.83;99296.47;4993077;28;20156;-66
2023/01/18 12:01:31;;;;;;;4.90;2.45;;;;;;;2.88;41.44;99289.03;5004875;28;20041;-66
2023/01/18 12:04:05;;;;;;;7.68;2.20;;;;;;;1.90;42.68;99296.34;4985065;28;20042;-67
2023/01/18 12:07:05;;;;;;;6.07;3.22;;;;;;;2.83;41.25;99301.25;4996779;28;20045;-66
2023/01/18 12:09:37;;;;;;;5.00;1.92;;;;;;;1.86;42.59;99307.66;4990757;28;20068;-66
2023/01/18 12:12:12;;;;;;;4.03;2.13;;;;;;;2.28;41.82;99307.25;4998439;28;20445;-65
2023/01/18 12:14:56;;;;;;;5.97;2.03;;;;;;;2.32;41.82;99314.00;5001288;28;20321;-65
2023/01/18 12:17:47;;;;;;;5.05;3.03;;;;;;;1.62;43.24;99298.91;4998757;28;20056;-66
2023/01/18 12:20:28;;;;;;;7.63;3.28;;;;;;;2.02;43.25;99302.91;5000077;28;20050;-66
2023/01/18 12:23:14;;;;;;;3.33;2.20;;;;;;;2.29;41.72;99292.66;4976888;28;20108;-66
2023/01/18 12:26:21;;;;;;;6.63;2.33;;;;;;;2.12;42.02;99296.56;4997780;28;20341;-66